sensor_id;sensor_type;location;lat;lon;timestamp;pressure;altitude;pressure_sealevel;temperature;humidity
76257;BME280;65074;50.436;8.672;2022-12-04T00:02:17;99471.56;;;0.00;100.00
76257;BME280;65074;50.436;8.672;2022-12-04T00:04:43;99472.06;;;0.04;100.00
76257;BME280;65074;50.436;8.672;2022-12-04T00:07:08;99466.41;;;0.07;100.00
76257;BME280;65074;50.436;8.672;2022-12-04T00:09:33;99467.88;;;0.10;100.00
76257;BME280;65074;50.436;8.672;2022-12-04T00:11:59;99470.03;;;0.06;100.00
76257;BME280;65074;50.436;8.672;2022-12-04T00:14:24;99464.22;;;0.11;100.00
76257;BME280;65074;50.436;8.672;2022-12-04T00:16:50;99468.16;;;0.15;100.00
76257;BME280;65074;50.436;8.672;2022-12-04T00:19:16;99468.78;;;0.02;100.00
76257;BME280;65074;50.436;8.672;2022-12-04T00:21:41;99463.28;;;0.04;100.00
76257;BME280;65074;50.436;8.672;2022-12-04T00:24:07;99467.69;;;0.11;100.00
76257;BME280;65074;50.436;8.672;2022-12-04T00:26:32;99462.19;;;0.13;100.00
76257;BME280;65074;50.436;8.672;2022-12-04T00:28:58;99460.75;;;0.10;100.00
76257;BME280;65074;50.436;8.672;2022-12-04T00:31:25;99466.50;;;0.14;100.00
76257;BME280;65074;50.436;8.672;2022-12-04T00:33:51;99463.94;;;0.20;100.00
76257;BME280;65074;50.436;8.672;2022-12-04T00:36:20;99474.44;;;0.28;100.00
76257;BME280;65074;50.436;8.672;2022-12-04T00:38:46;99466.31;;;0.30;100.00
76257;BME280;65074;50.436;8.672;2022-12-04T00:41:15;99470.06;;;0.21;100.00
76257;BME280;65074;50.436;8.672;2022-12-04T00:43:41;99473.97;;;0.10;100.00
76257;BME280;65074;50.436;8.672;2022-12-04T00:46:06;99473.59;;;0.13;100.00
76257;BME280;65074;50.436;8.672;2022-12-04T00:48:32;99471.97;;;0.12;100.00
76257;BME280;65074;50.436;8.672;2022-12-04T00:51:02;99461.13;;;0.07;100.00
76257;BME280;65074;50.436;8.672;2022-12-04T00:53:28;99472.34;;;0.09;100.00
76257;BME280;65074;50.436;8.672;2022-12-04T00:55:54;99466.81;;;-0.04;100.00
76257;BME280;65074;50.436;8.672;2022-12-04T00:58:19;99475.25;;;-0.01;100.00
76257;BME280;65074;50.436;8.672;2022-12-04T01:00:44;99464.81;;;-0.02;100.00
76257;BME280;65074;50.436;8.672;2022-12-04T01:03:10;99467.59;;;0.05;100.00
76257;BME280;65074;50.436;8.672;2022-12-04T01:05:40;99472.16;;;0.11;100.00
76257;BME280;65074;50.436;8.672;2022-12-04T01:08:08;99477.97;;;0.06;100.00
76257;BME280;65074;50.436;8.672;2022-12-04T01:10:34;99489.03;;;0.10;100.00
76257;BME280;65074;50.436;8.672;2022-12-04T01:12:59;99488.66;;;0.13;100.00
76257;BME280;65074;50.436;8.672;2022-12-04T01:15:24;99486.00;;;0.13;100.00
76257;BME280;65074;50.436;8.672;2022-12-04T01:17:50;99481.44;;;0.07;100.00
76257;BME280;65074;50.436;8.672;2022-12-04T01:20:15;99473.31;;;0.08;100.00
76257;BME280;65074;50.436;8.672;2022-12-04T01:22:41;99470.53;;;0.10;100.00
76257;BME280;65074;50.436;8.672;2022-12-04T01:25:07;99469.50;;;0.11;100.00
76257;BME280;65074;50.436;8.672;2022-12-04T01:27:33;99463.66;;;0.15;100.00
76257;BME280;65074;50.436;8.672;2022-12-04T01:29:58;99461.91;;;0.08;100.00
76257;BME280;65074;50.436;8.672;2022-12-04T01:32:24;99457.66;;;0.07;100.00
76257;BME280;65074;50.436;8.672;2022-12-04T01:34:49;99453.53;;;0.04;100.00
76257;BME280;65074;50.436;8.672;2022-12-04T01:37:14;99449.44;;;0.02;100.00
76257;BME280;65074;50.436;8.672;2022-12-04T01:39:40;99436.03;;;0.03;100.00
76257;BME280;65074;50.436;8.672;2022-12-04T01:42:05;99437.75;;;0.11;100.00
76257;BME280;65074;50.436;8.672;2022-12-04T01:44:31;99425.72;;;0.08;100.00
76257;BME280;65074;50.436;8.672;2022-12-04T01:47:00;99422.38;;;0.14;100.00
76257;BME280;65074;50.436;8.672;2022-12-04T01:49:38;99423.28;;;0.07;100.00
76257;BME280;65074;50.436;8.672;2022-12-04T01:54:45;99430.47;;;0.13;100.00
76257;BME280;65074;50.436;8.672;2022-12-04T01:57:15;99426.34;;;0.10;100.00
76257;BME280;65074;50.436;8.672;2022-12-04T01:59:50;99419.25;;;0.11;100.00
76257;BME280;65074;50.436;8.672;2022-12-04T02:02:22;99419.72;;;0.14;100.00
76257;BME280;65074;50.436;8.672;2022-12-04T02:04:48;99420.34;;;0.02;100.00
76257;BME280;65074;50.436;8.672;2022-12-04T02:07:14;99421.81;;;0.04;100.00
76257;BME280;65074;50.436;8.672;2022-12-04T02:09:40;99425.34;;;-0.04;100.00
76257;BME280;65074;50.436;8.672;2022-12-04T02:17:48;99434.69;;;0.07;100.00
76257;BME280;65074;50.436;8.672;2022-12-04T02:23:02;99434.41;;;0.17;
76257;BME280;65074;50.436;8.672;2022-12-04T02:28:21;99449.16;;;0.11;100.00
76257;BME280;65074;50.436;8.672;2022-12-04T02:30:50;99452.94;;;0.17;100.00
76257;BME280;65074;50.436;8.672;2022-12-04T02:33:21;99452.38;;;0.21;100.00
76257;BME280;65074;50.436;8.672;2022-12-04T02:35:58;99448.00;;;0.14;100.00
76257;BME280;65074;50.436;8.672;2022-12-04T02:38:34;99448.53;;;0.24;100.00
76257;BME280;65074;50.436;8.672;2022-12-04T02:41:09;99448.06;;;0.20;100.00
76257;BME280;65074;50.436;8.672;2022-12-04T02:43:43;99448.19;;;0.27;100.00
76257;BME280;65074;50.436;8.672;2022-12-04T02:46:19;99448.19;;;0.27;100.00
76257;BME280;65074;50.436;8.672;2022-12-04T02:48:49;99458.50;;;0.22;100.00
76257;BME280;65074;50.436;8.672;2022-12-04T02:51:18;99462.88;;;0.15;100.00
76257;BME280;65074;50.436;8.672;2022-12-04T02:53:56;99454.25;;;0.13;100.00
76257;BME280;65074;50.436;8.672;2022-12-04T02:56:29;99443.81;;;0.19;100.00
76257;BME280;65074;50.436;8.672;2022-12-04T02:59:00;99442.16;;;0.18;100.00
76257;BME280;65074;50.436;8.672;2022-12-04T03:01:31;99446.53;;;0.11;100.00
76257;BME280;65074;50.436;8.672;2022-12-04T03:04:07;99438.16;;;0.22;100.00
76257;BME280;65074;50.436;8.672;2022-12-04T03:06:37;99449.66;;;0.15;100.00
76257;BME280;65074;50.436;8.672;2022-12-04T03:09:16;99450.34;;;0.09;100.00
76257;BME280;65074;50.436;8.672;2022-12-04T03:11:48;99448.19;;;0.12;100.00
76257;BME280;65074;50.436;8.672;2022-12-04T03:14:20;99446.06;;;0.08;100.00
76257;BME280;65074;50.436;8.672;2022-12-04T03:16:49;99438.59;;;0.11;100.00
76257;BME280;65074;50.436;8.672;2022-12-04T03:19:23;99447.22;;;0.05;100.00
76257;BME280;65074;50.436;8.672;2022-12-04T03:21:57;99446.53;;;0.11;100.00
76257;BME280;65074;50.436;8.672;2022-12-04T03:24:33;99440.13;;;0.06;100.00
76257;BME280;65074;50.436;8.672;2022-12-04T03:29:34;99437.88;;;0.17;100.00
76257;BME280;65074;50.436;8.672;2022-12-04T03:34:38;99429.94;;;0.17;100.00
76257;BME280;65074;50.436;8.672;2022-12-04T03:37:10;99436.78;;;0.12;100.00
76257;BME280;65074;50.436;8.672;2022-12-04T03:39:47;99440.94;;;0.06;100.00
76257;BME280;65074;50.436;8.672;2022-12-04T03:42:25;99448.88;;;0.06;100.00
76257;BME280;65074;50.436;8.672;2022-12-04T03:44:54;99440.31;;;0.04;100.00
76257;BME280;65074;50.436;8.672;2022-12-04T03:47:47;99430.47;;;0.13;100.00
76257;BME280;65074;50.436;8.672;2022-12-04T03:50:25;99429.91;;;0.03;100.00
76257;BME280;65074;50.436;8.672;2022-12-04T03:53:01;99423.44;;;0.05;100.00
76257;BME280;65074;50.436;8.672;2022-12-04T03:55:34;99427.19;;;0.11;100.00
76257;BME280;65074;50.436;8.672;2022-12-04T03:58:07;99431.00;;;0.08;100.00
76257;BME280;65074;50.436;8.672;2022-12-04T04:00:36;99435.41;;;0.16;100.00
76257;BME280;65074;50.436;8.672;2022-12-04T04:03:15;99438.41;;;0.13;100.00
76257;BME280;65074;50.436;8.672;2022-12-04T04:05:46;99441.59;;;0.08;100.00
76257;BME280;65074;50.436;8.672;2022-12-04T04:08:16;99438.16;;;0.22;100.00
76257;BME280;65074;50.436;8.672;2022-12-04T04:10:52;99426.47;;;0.17;100.00
76257;BME280;65074;50.436;8.672;2022-12-04T04:13:21;99430.47;;;0.13;100.00
76257;BME280;65074;50.436;8.672;2022-12-04T04:16:10;99429.53;;;0.06;100.00
76257;BME280;65074;50.436;8.672;2022-12-04T04:18:58;99421.97;;;0.03;100.00
76257;BME280;65074;50.436;8.672;2022-12-04T04:21:43;99433.38;;;0.03;100.00
76257;BME280;65074;50.436;8.672;2022-12-04T04:24:44;99435.03;;;0.04;100.00
76257;BME280;65074;50.436;8.672;2022-12-04T04:27:10;99430.63;;;-0.04;100.00
76257;BME280;65074;50.436;8.672;2022-12-04T04:29:36;99421.88;;;-0.04;100.00
76257;BME280;65074;50.436;8.672;2022-12-04T04:34:47;99427.00;;;-0.03;100.00
76257;BME280;65074;50.436;8.672;2022-12-04T04:37:39;99424.06;;;-0.08;100.00
76257;BME280;65074;50.436;8.672;2022-12-04T04:40:35;99427.00;;;-0.03;100.00
76257;BME280;65074;50.436;8.672;2022-12-04T04:43:24;99425.00;;;-0.01;100.00
76257;BME280;65074;50.436;8.672;2022-12-04T04:46:00;99421.53;;;-0.01;100.00
76257;BME280;65074;50.436;8.672;2022-12-04T04:48:34;99423.59;;;-0.11;100.00
76257;BME280;65074;50.436;8.672;2022-12-04T04:51:02;99422.06;;;-0.06;100.00
76257;BME280;65074;50.436;8.672;2022-12-04T04:53:53;99419.88;;;-0.02;100.00
76257;BME280;65074;50.436;8.672;2022-12-04T04:56:20;99420.69;;;-0.16;100.00
76257;BME280;65074;50.436;8.672;2022-12-04T04:58:46;99427.91;;;-0.10;100.00
76257;BME280;65074;50.436;8.672;2022-12-04T05:01:22;99423.53;;;-0.03;100.00
76257;BME280;65074;50.436;8.672;2022-12-04T05:03:48;99421.94;;;-0.12;100.00
76257;BME280;65074;50.436;8.672;2022-12-04T05:06:14;99424.06;;;-0.08;100.00
76257;BME280;65074;50.436;8.672;2022-12-04T05:08:39;99420.31;;;-0.13;100.00
76257;BME280;65074;50.436;8.672;2022-12-04T05:11:05;99430.06;;;-0.14;100.00
76257;BME280;65074;50.436;8.672;2022-12-04T05:13:35;99432.16;;;-0.09;100.00
76257;BME280;65074;50.436;8.672;2022-12-04T05:16:02;99427.44;;;-0.14;100.00
76257;BME280;65074;50.436;8.672;2022-12-04T05:18:29;99439.13;;;-0.08;100.00
76257;BME280;65074;50.436;8.672;2022-12-04T05:20:55;99431.00;;;-0.07;100.00
76257;BME280;65074;50.436;8.672;2022-12-04T05:23:21;99433.63;;;-0.07;100.00
76257;BME280;65074;50.436;8.672;2022-12-04T05:25:46;99437.66;;;-0.11;100.00
76257;BME280;65074;50.436;8.672;2022-12-04T05:28:12;99437.47;;;-0.09;100.00
76257;BME280;65074;50.436;8.672;2022-12-04T05:30:38;99442.13;;;-0.11;100.00
76257;BME280;65074;50.436;8.672;2022-12-04T05:33:03;99440.44;;;-0.12;100.00
76257;BME280;65074;50.436;8.672;2022-12-04T05:35:28;99436.00;;;-0.12;100.00
76257;BME280;65074;50.436;8.672;2022-12-04T05:37:54;99447.75;;;-0.14;100.00
76257;BME280;65074;50.436;8.672;2022-12-04T05:40:19;99446.47;;;-0.18;100.00
76257;BME280;65074;50.436;8.672;2022-12-04T05:42:45;99442.88;;;-0.03;100.00
76257;BME280;65074;50.436;8.672;2022-12-04T05:45:10;99439.13;;;-0.08;100.00
76257;BME280;65074;50.436;8.672;2022-12-04T05:47:42;99448.38;;;-0.12;100.00
76257;BME280;65074;50.436;8.672;2022-12-04T05:50:10;99446.50;;;-0.04;100.00
76257;BME280;65074;50.436;8.672;2022-12-04T05:52:36;99443.88;;;-0.04;100.00
76257;BME280;65074;50.436;8.672;2022-12-04T05:55:01;99439.50;;;0.04;100.00
76257;BME280;65074;50.436;8.672;2022-12-04T05:57:27;99439.50;;;0.04;100.00
76257;BME280;65074;50.436;8.672;2022-12-04T05:59:53;99429.09;;;0.02;100.00
76257;BME280;65074;50.436;8.672;2022-12-04T06:02:18;99428.81;;;-0.03;100.00
76257;BME280;65074;50.436;8.672;2022-12-04T06:04:43;99421.22;;;-0.21;100.00
76257;BME280;65074;50.436;8.672;2022-12-04T06:07:09;99424.16;;;-0.16;100.00
76257;BME280;65074;50.436;8.672;2022-12-04T06:09:35;99426.50;;;-0.21;100.00
76257;BME280;65074;50.436;8.672;2022-12-04T06:12:01;99420.19;;;-0.20;100.00
76257;BME280;65074;50.436;8.672;2022-12-04T06:14:26;99419.59;;;-0.07;100.00
76257;BME280;65074;50.436;8.672;2022-12-04T06:16:51;99422.78;;;-0.12;100.00
76257;BME280;65074;50.436;8.672;2022-12-04T06:19:18;99421.88;;;-0.04;100.00
76257;BME280;65074;50.436;8.672;2022-12-04T06:21:46;99414.50;;;-0.09;100.00
76257;BME280;65074;50.436;8.672;2022-12-04T06:24:14;99419.88;;;-0.02;100.00
76257;BME280;65074;50.436;8.672;2022-12-04T06:26:40;99424.06;;;-0.08;100.00
76257;BME280;65074;50.436;8.672;2022-12-04T06:29:05;99431.75;;;0.02;100.00
76257;BME280;65074;50.436;8.672;2022-12-04T06:31:31;99427.66;;;-0.01;100.00
76257;BME280;65074;50.436;8.672;2022-12-04T06:33:57;99426.06;;;-0.10;100.00
76257;BME280;65074;50.436;8.672;2022-12-04T06:36:24;99432.47;;;-0.04;100.00
76257;BME280;65074;50.436;8.672;2022-12-04T06:38:53;99429.38;;;0.07;100.00
76257;BME280;65074;50.436;8.672;2022-12-04T06:41:20;99431.56;;;0.04;100.00
76257;BME280;65074;50.436;8.672;2022-12-04T06:43:46;99436.03;;;0.03;100.00
76257;BME280;65074;50.436;8.672;2022-12-04T06:46:18;99436.50;;;0.07;100.00
76257;BME280;65074;50.436;8.672;2022-12-04T06:48:44;99435.84;;;0.05;100.00
76257;BME280;65074;50.436;8.672;2022-12-04T06:51:12;99433.94;;;0.13;100.00
76257;BME280;65074;50.436;8.672;2022-12-04T06:53:38;99436.28;;;0.08;100.00
76257;BME280;65074;50.436;8.672;2022-12-04T06:56:06;99438.31;;;0.06;100.00
76257;BME280;65074;50.436;8.672;2022-12-04T06:58:32;99434.94;;;-0.03;100.00
76257;BME280;65074;50.436;8.672;2022-12-04T07:00:58;99432.81;;;-0.07;100.00
76257;BME280;65074;50.436;8.672;2022-12-04T07:03:24;99424.25;;;-0.09;100.00
76257;BME280;65074;50.436;8.672;2022-12-04T07:05:50;99430.16;;;-0.07;100.00
76257;BME280;65074;50.436;8.672;2022-12-04T07:08:16;99431.91;;;0.00;100.00
76257;BME280;65074;50.436;8.672;2022-12-04T07:10:42;99430.91;;;0.02;100.00
76257;BME280;65074;50.436;8.672;2022-12-04T07:13:08;99425.63;;;0.02;100.00
76257;BME280;65074;50.436;8.672;2022-12-04T07:15:35;99425.34;;;-0.04;100.00
76257;BME280;65074;50.436;8.672;2022-12-04T07:18:00;99427.72;;;-0.09;100.00
76257;BME280;65074;50.436;8.672;2022-12-04T07:20:26;99430.63;;;-0.04;100.00
76257;BME280;65074;50.436;8.672;2022-12-04T07:22:51;99430.09;;;0.01;100.00
76257;BME280;65074;50.436;8.672;2022-12-04T07:25:17;99432.53;;;0.03;100.00
76257;BME280;65074;50.436;8.672;2022-12-04T07:27:43;99428.38;;;0.08;100.00
76257;BME280;65074;50.436;8.672;2022-12-04T07:30:09;99429.91;;;0.03;100.00
76257;BME280;65074;50.436;8.672;2022-12-04T07:32:35;99424.00;;;0.15;100.00
76257;BME280;65074;50.436;8.672;2022-12-04T07:35:02;99430.38;;;0.21;100.00
76257;BME280;65074;50.436;8.672;2022-12-04T07:37:27;99430.03;;;0.24;100.00
76257;BME280;65074;50.436;8.672;2022-12-04T07:39:53;99431.66;;;0.25;100.00
76257;BME280;65074;50.436;8.672;2022-12-04T07:42:19;99434.41;;;0.17;100.00
76257;BME280;65074;50.436;8.672;2022-12-04T07:44:45;99432.03;;;0.22;100.00
76257;BME280;65074;50.436;8.672;2022-12-04T07:47:10;99433.38;;;0.32;100.00
76257;BME280;65074;50.436;8.672;2022-12-04T07:49:36;99431.41;;;0.34;100.00
76257;BME280;65074;50.436;8.672;2022-12-04T07:52:01;99428.38;;;0.37;100.00
76257;BME280;65074;50.436;8.672;2022-12-04T07:54:27;99426.47;;;0.31;100.00
76257;BME280;65074;50.436;8.672;2022-12-04T07:56:52;99423.34;;;0.42;100.00
76257;BME280;65074;50.436;8.672;2022-12-04T07:59:18;99428.47;;;0.44;100.00
76257;BME280;65074;50.436;8.672;2022-12-04T08:01:43;99423.56;;;0.41;100.00
76257;BME280;65074;50.436;8.672;2022-12-04T08:04:09;99418.00;;;0.36;100.00
76257;BME280;65074;50.436;8.672;2022-12-04T08:06:35;99428.75;;;0.34;100.00
76257;BME280;65074;50.436;8.672;2022-12-04T08:09:05;99422.38;;;0.43;100.00
76257;BME280;65074;50.436;8.672;2022-12-04T08:11:30;99426.56;;;0.38;100.00
76257;BME280;65074;50.436;8.672;2022-12-04T08:13:58;99419.44;;;0.38;100.00
76257;BME280;65074;50.436;8.672;2022-12-04T08:16:25;99424.03;;;0.44;100.00
76257;BME280;65074;50.436;8.672;2022-12-04T08:18:52;99432.47;;;0.40;100.00
76257;BME280;65074;50.436;8.672;2022-12-04T08:21:20;99433.16;;;0.42;100.00
76257;BME280;65074;50.436;8.672;2022-12-04T08:23:48;99419.44;;;0.38;100.00
76257;BME280;65074;50.436;8.672;2022-12-04T08:26:14;99415.53;;;0.49;100.00
76257;BME280;65074;50.436;8.672;2022-12-04T08:28:40;99423.47;;;0.49;100.00
76257;BME280;65074;50.436;8.672;2022-12-04T08:31:14;99428.38;;;0.52;100.00
76257;BME280;65074;50.436;8.672;2022-12-04T08:33:42;99429.81;;;0.54;100.00
76257;BME280;65074;50.436;8.672;2022-12-04T08:36:09;99432.75;;;0.59;100.00
76257;BME280;65074;50.436;8.672;2022-12-04T08:38:35;99430.50;;;0.56;100.00
76257;BME280;65074;50.436;8.672;2022-12-04T08:41:03;99426.00;;;0.57;100.00
76257;BME280;65074;50.436;8.672;2022-12-04T08:43:28;99427.38;;;0.53;100.00
76257;BME280;65074;50.436;8.672;2022-12-04T08:45:58;99433.31;;;0.55;100.00
76257;BME280;65074;50.436;8.672;2022-12-04T08:48:24;99439.75;;;0.67;100.00
76257;BME280;65074;50.436;8.672;2022-12-04T08:50:49;99435.75;;;0.71;100.00
76257;BME280;65074;50.436;8.672;2022-12-04T08:53:15;99438.22;;;0.73;100.00
76257;BME280;65074;50.436;8.672;2022-12-04T08:55:40;99434.94;;;0.71;100.00
76257;BME280;65074;50.436;8.672;2022-12-04T08:58:05;99437.78;;;0.69;100.00
76257;BME280;65074;50.436;8.672;2022-12-04T09:00:31;99442.78;;;0.79;100.00
76257;BME280;65074;50.436;8.672;2022-12-04T09:02:56;99439.69;;;0.75;100.00
76257;BME280;65074;50.436;8.672;2022-12-04T09:05:22;99438.69;;;0.76;100.00
76257;BME280;65074;50.436;8.672;2022-12-04T09:07:47;99429.16;;;0.82;100.00
76257;BME280;65074;50.436;8.672;2022-12-04T09:10:13;99437.09;;;0.82;100.00
76257;BME280;65074;50.436;8.672;2022-12-04T09:12:38;99426.78;;;0.87;100.00
76257;BME280;65074;50.436;8.672;2022-12-04T09:15:04;99434.19;;;0.91;100.00
76257;BME280;65074;50.436;8.672;2022-12-04T09:17:29;99432.16;;;0.93;100.00
76257;BME280;65074;50.436;8.672;2022-12-04T09:19:55;99439.03;;;0.88;100.00
76257;BME280;65074;50.436;8.672;2022-12-04T09:22:20;99428.44;;;0.88;100.00
76257;BME280;65074;50.436;8.672;2022-12-04T09:24:45;99431.28;;;0.86;100.00
76257;BME280;65074;50.436;8.672;2022-12-04T09:27:11;99425.78;;;0.88;100.00
76257;BME280;65074;50.436;8.672;2022-12-04T09:29:36;99420.31;;;0.75;100.00
76257;BME280;65074;50.436;8.672;2022-12-04T09:32:01;99406.72;;;0.78;100.00
76257;BME280;65074;50.436;8.672;2022-12-04T09:34:27;99406.97;;;0.83;100.00
76257;BME280;65074;50.436;8.672;2022-12-04T09:36:52;99405.53;;;0.80;100.00
76257;BME280;65074;50.436;8.672;2022-12-04T09:39:17;99401.31;;;0.86;100.00
76257;BME280;65074;50.436;8.672;2022-12-04T09:42:05;99409.25;;;0.86;100.00
76257;BME280;65074;50.436;8.672;2022-12-04T09:44:35;99403.50;;;0.82;100.00
76257;BME280;65074;50.436;8.672;2022-12-04T09:47:08;99421.56;;;0.93;100.00
76257;BME280;65074;50.436;8.672;2022-12-04T09:49:48;99413.63;;;0.93;100.00
76257;BME280;65074;50.436;8.672;2022-12-04T09:52:42;99413.38;;;0.88;100.00
76257;BME280;65074;50.436;8.672;2022-12-04T09:55:14;99417.47;;;0.91;100.00
76257;BME280;65074;50.436;8.672;2022-12-04T09:57:45;99409.06;;;0.87;100.00
76257;BME280;65074;50.436;8.672;2022-12-04T10:00:14;99408.34;;;0.93;100.00
76257;BME280;65074;50.436;8.672;2022-12-04T10:02:44;99404.41;;;0.89;100.00
76257;BME280;65074;50.436;8.672;2022-12-04T10:08:20;99400.44;;;1.00;100.00
76257;BME280;65074;50.436;8.672;2022-12-04T10:10:57;99401.16;;;1.08;100.00
76257;BME280;65074;50.436;8.672;2022-12-04T10:16:45;99396.81;;;1.22;100.00
76257;BME280;65074;50.436;8.672;2022-12-04T10:19:15;99407.88;;;1.25;100.00
76257;BME280;65074;50.436;8.672;2022-12-04T10:24:48;99401.22;;;1.15;100.00
76257;BME280;65074;50.436;8.672;2022-12-04T10:27:20;99403.25;;;1.13;100.00
76257;BME280;65074;50.436;8.672;2022-12-04T10:29:50;99399.91;;;1.25;100.00
76257;BME280;65074;50.436;8.672;2022-12-04T10:32:20;99401.22;;;1.36;100.00
76257;BME280;65074;50.436;8.672;2022-12-04T10:34:51;99396.25;;;1.48;100.00
76257;BME280;65074;50.436;8.672;2022-12-04T10:37:18;99397.13;;;1.33;100.00
76257;BME280;65074;50.436;8.672;2022-12-04T10:39:49;99394.66;;;1.32;100.00
76257;BME280;65074;50.436;8.672;2022-12-04T10:42:25;99398.44;;;1.44;100.00
76257;BME280;65074;50.436;8.672;2022-12-04T10:44:53;99397.19;;;1.40;100.00
76257;BME280;65074;50.436;8.672;2022-12-04T10:47:19;99396.00;;;1.43;100.00
76257;BME280;65074;50.436;8.672;2022-12-04T10:49:46;99389.88;;;1.42;100.00
76257;BME280;65074;50.436;8.672;2022-12-04T10:52:12;99382.81;;;1.28;100.00
76257;BME280;65074;50.436;8.672;2022-12-04T10:57:11;99377.06;;;1.24;100.00
76257;BME280;65074;50.436;8.672;2022-12-04T10:59:55;99380.97;;;1.28;100.00
76257;BME280;65074;50.436;8.672;2022-12-04T11:02:24;99368.78;;;1.34;100.00
76257;BME280;65074;50.436;8.672;2022-12-04T11:07:26;99361.28;;;1.38;100.00
76257;BME280;65074;50.436;8.672;2022-12-04T11:09:58;99372.19;;;1.49;100.00
76257;BME280;65074;50.436;8.672;2022-12-04T11:12:24;99364.63;;;1.46;100.00
76257;BME280;65074;50.436;8.672;2022-12-04T11:15:19;99358.59;;;1.59;100.00
76257;BME280;65074;50.436;8.672;2022-12-04T11:17:45;99353.50;;;1.36;100.00
76257;BME280;65074;50.436;8.672;2022-12-04T11:20:22;99344.69;;;1.50;100.00
76257;BME280;65074;50.436;8.672;2022-12-04T11:22:52;99347.41;;;1.36;100.00
76257;BME280;65074;50.436;8.672;2022-12-04T11:25:20;99348.78;;;1.53;100.00
76257;BME280;65074;50.436;8.672;2022-12-04T11:27:49;99339.13;;;1.45;100.00
76257;BME280;65074;50.436;8.672;2022-12-04T11:30:20;99334.94;;;1.57;100.00
76257;BME280;65074;50.436;8.672;2022-12-04T11:32:46;99324.69;;;1.48;100.00
76257;BME280;65074;50.436;8.672;2022-12-04T11:35:30;99325.06;;;1.45;100.00
76257;BME280;65074;50.436;8.672;2022-12-04T11:40:29;99319.63;;;1.53;100.00
76257;BME280;65074;50.436;8.672;2022-12-04T11:43:12;99308.69;;;1.62;100.00
76257;BME280;65074;50.436;8.672;2022-12-04T11:45:39;99308.94;;;1.74;100.00
76257;BME280;65074;50.436;8.672;2022-12-04T11:48:15;99310.00;;;1.79;100.00
76257;BME280;65074;50.436;8.672;2022-12-04T11:53:18;99290.25;;;1.82;100.00
76257;BME280;65074;50.436;8.672;2022-12-04T11:58:35;99280.72;;;1.94;99.43
76257;BME280;65074;50.436;8.672;2022-12-04T12:09:39;99275.66;;;1.99;99.50
76257;BME280;65074;50.436;8.672;2022-12-04T12:17:58;99268.91;;;2.03;99.29
76257;BME280;65074;50.436;8.672;2022-12-04T12:21:08;99270.22;;;1.79;100.00
76257;BME280;65074;50.436;8.672;2022-12-04T12:23:49;99274.59;;;2.00;99.52
76257;BME280;65074;50.436;8.672;2022-12-04T12:26:23;99280.50;;;1.95;99.30
76257;BME280;65074;50.436;8.672;2022-12-04T12:29:31;99288.06;;;1.92;99.60
76257;BME280;65074;50.436;8.672;2022-12-04T12:34:59;99294.19;;;1.92;99.36
76257;BME280;65074;50.436;8.672;2022-12-04T12:37:38;99294.88;;;1.73;100.00
76257;BME280;65074;50.436;8.672;2022-12-04T12:43:03;99311.84;;;1.79;100.00
76257;BME280;65074;50.436;8.672;2022-12-04T12:45:53;99318.41;;;1.55;100.00
76257;BME280;65074;50.436;8.672;2022-12-04T12:48:27;99324.59;;;1.62;100.00
76257;BME280;65074;50.436;8.672;2022-12-04T12:53:48;99323.78;;;1.68;100.00
76257;BME280;65074;50.436;8.672;2022-12-04T12:56:17;99322.59;;;1.71;100.00
76257;BME280;65074;50.436;8.672;2022-12-04T12:58:48;99314.47;;;1.72;100.00
76257;BME280;65074;50.436;8.672;2022-12-04T13:01:18;99317.28;;;1.71;100.00
76257;BME280;65074;50.436;8.672;2022-12-04T13:04:10;99302.16;;;1.92;100.00
76257;BME280;65074;50.436;8.672;2022-12-04T13:06:43;99303.25;;;1.77;100.00
76257;BME280;65074;50.436;8.672;2022-12-04T13:11:42;99306.09;;;1.75;100.00
76257;BME280;65074;50.436;8.672;2022-12-04T13:14:11;99296.38;;;1.82;100.00
76257;BME280;65074;50.436;8.672;2022-12-04T13:16:42;99286.16;;;1.79;100.00
76257;BME280;65074;50.436;8.672;2022-12-04T13:19:21;99294.09;;;1.79;100.00
76257;BME280;65074;50.436;8.672;2022-12-04T13:38:11;99275.91;;;1.76;100.00
76257;BME280;65074;50.436;8.672;2022-12-04T13:40:34;99281.44;;;1.75;100.00
76257;BME280;65074;50.436;8.672;2022-12-04T13:45:58;99273.50;;;1.81;100.00
76257;BME280;65074;50.436;8.672;2022-12-04T13:48:32;99282.22;;;1.75;100.00
76257;BME280;65074;50.436;8.672;2022-12-04T13:51:20;99279.81;;;1.80;100.00
76257;BME280;65074;50.436;8.672;2022-12-04T13:53:46;99282.88;;;1.77;100.00
76257;BME280;65074;50.436;8.672;2022-12-04T13:56:25;99284.47;;;1.72;100.00
76257;BME280;65074;50.436;8.672;2022-12-04T13:59:19;99277.38;;;1.79;100.00
76257;BME280;65074;50.436;8.672;2022-12-04T14:01:51;99265.09;;;1.78;100.00
76257;BME280;65074;50.436;8.672;2022-12-04T14:04:40;99261.97;;;1.61;100.00
76257;BME280;65074;50.436;8.672;2022-12-04T14:07:25;99262.78;;;1.62;100.00
76257;BME280;65074;50.436;8.672;2022-12-04T14:09:52;99260.34;;;1.60;100.00
76257;BME280;65074;50.436;8.672;2022-12-04T14:12:25;99257.09;;;1.65;100.00
76257;BME280;65074;50.436;8.672;2022-12-04T14:14:54;99266.06;;;1.64;100.00
76257;BME280;65074;50.436;8.672;2022-12-04T14:17:38;99268.13;;;1.68;100.00
76257;BME280;65074;50.436;8.672;2022-12-04T14:20:22;99269.72;;;1.97;100.00
76257;BME280;65074;50.436;8.672;2022-12-04T14:22:49;99272.50;;;1.82;100.00
76257;BME280;65074;50.436;8.672;2022-12-04T14:30:21;99256.75;;;1.81;100.00
76257;BME280;65074;50.436;8.672;2022-12-04T14:32:51;99241.84;;;1.73;100.00
76257;BME280;65074;50.436;8.672;2022-12-04T14:35:25;99238.16;;;1.68;100.00
76257;BME280;65074;50.436;8.672;2022-12-04T14:38:01;99240.59;;;1.69;100.00
76257;BME280;65074;50.436;8.672;2022-12-04T14:40:35;99235.88;;;1.65;100.00
76257;BME280;65074;50.436;8.672;2022-12-04T14:43:01;99231.16;;;1.60;100.00
76257;BME280;65074;50.436;8.672;2022-12-04T14:45:46;99240.59;;;1.69;100.00
76257;BME280;65074;50.436;8.672;2022-12-04T14:48:24;99230.69;;;1.84;100.00